Kezdőlap
METAR-TAF:

METAR-TAF

Repülőterek :

Anguilla, Anguilla

földrajzi szélesség: 18-12-17N, földrajzi hosszúság: 063-03-18W, magasság: 31 m

Jelenlegi meteorológiai megfigyelések

A jelentés 2 órával és 33 perccel ezelõtt készült, 01:00 UTC
Keleti szél 9 kt
Hőmérséklet 29°C
Páratartalom 84%
Légköri nyomás 1016 hPa
Látótávolság 10 km, vagy több
Szórványos felhőzet 1800 lábon

METAR: TQPF 130100Z 08009KT 9999 SCT018 29/26 Q1016

Idő: 23:33 (03:33 UTC)

Előrejelzés

A jelentés 10 órával és 33 perccel ezelõtt készült, 17:00 UTC
Az előrejelzés 12-én 18 óra UTC és 13-én 18 óra UTC között érvényes
Keleti szél 13 kt
Látótávolság 10 km, vagy több
Szórványos felhőzet 2000 lábon

TAF: TQPF 121700Z 1218/1318 09013KT 9999 SCT020

Meteorológiai megfigyelések és előrejelzések több, mint 4000 repülőtéren (METAR és TAF jelentéseket).

A térképen piros és sárga pontok jelzik az elérhető meteorológiai állomásokat.

Mozgassa az egeret a pont fölött, hogy megjelenjen az állomás neve.

Azután kattintson az időjárási megfigyelések és előrejelzések megtekintéséhez.

A térkép megváltoztatása: kattintson a fekete keresztel jelölt zöld gombra ráközelítéshez, a vonallal jelölt zöld gombra távolításhoz, vagy a zöld nyilakra a szomszédos térképek eléréséhez.


METAR-TAF: